createdAt,value
2019-06-20T00:00:52.185Z,90.00
2019-06-20T00:03:21.526Z,90.40
2019-06-20T00:05:50.536Z,89.90
2019-06-20T00:08:19.465Z,89.60
2019-06-20T00:10:48.745Z,89.90
2019-06-20T00:13:17.707Z,89.60
2019-06-20T00:15:46.679Z,90.00
2019-06-20T00:18:15.592Z,89.20
2019-06-20T00:20:44.513Z,88.90
2019-06-20T00:23:13.479Z,88.50
2019-06-20T00:25:43.185Z,88.90
2019-06-20T00:28:12.180Z,89.70
2019-06-20T00:30:41.690Z,91.30
2019-06-20T00:33:10.613Z,89.50
2019-06-20T00:35:39.521Z,90.10
2019-06-20T00:38:08.525Z,91.20
2019-06-20T00:40:37.470Z,89.70
2019-06-20T00:43:16.869Z,88.80
2019-06-20T00:45:37.054Z,90.20
2019-06-20T00:48:06.040Z,90.60
2019-06-20T00:50:34.967Z,90.60
2019-06-20T00:53:03.926Z,89.50
2019-06-20T00:55:32.830Z,88.20
2019-06-20T00:58:01.787Z,88.90
2019-06-20T01:00:30.814Z,88.60
2019-06-20T01:02:59.738Z,87.80
2019-06-20T01:05:28.633Z,87.90
2019-06-20T01:07:57.627Z,87.60
2019-06-20T01:10:26.639Z,87.50
2019-06-20T01:12:55.566Z,87.60
2019-06-20T01:15:24.507Z,87.50
2019-06-20T01:17:53.487Z,87.80
2019-06-20T01:20:22.965Z,88.70
2019-06-20T01:22:51.900Z,88.30
2019-06-20T01:25:35.390Z,89.00
2019-06-20T01:28:04.489Z,89.40
2019-06-20T01:30:33.389Z,89.80
2019-06-20T01:33:02.401Z,90.20
2019-06-20T01:35:31.305Z,89.90
2019-06-20T01:38:00.262Z,90.10
2019-06-20T01:40:29.243Z,90.50
2019-06-20T01:42:58.143Z,90.40
2019-06-20T01:45:27.041Z,90.60
2019-06-20T01:47:56.011Z,90.60
2019-06-20T01:50:24.914Z,90.70
2019-06-20T01:52:53.815Z,91.30
2019-06-20T01:55:22.783Z,90.90
2019-06-20T01:57:51.695Z,90.90
2019-06-20T02:00:46.188Z,90.80
2019-06-20T02:03:15.794Z,90.40
2019-06-20T02:05:45.102Z,90.60
2019-06-20T02:08:15.348Z,90.70
2019-06-20T02:10:44.343Z,90.80
2019-06-20T02:13:13.301Z,90.70
2019-06-20T02:15:42.370Z,90.50
2019-06-20T02:18:11.391Z,90.60
2019-06-20T02:20:49.396Z,90.90
2019-06-20T02:23:18.438Z,90.80
2019-06-20T02:25:47.495Z,91.00
2019-06-20T02:28:16.733Z,91.30
2019-06-20T02:30:45.630Z,91.40
2019-06-20T02:33:14.541Z,91.60
2019-06-20T02:35:43.608Z,91.90
2019-06-20T02:38:12.513Z,92.30
2019-06-20T02:40:41.522Z,92.60
2019-06-20T02:43:10.476Z,92.90
2019-06-20T02:45:39.541Z,93.60
2019-06-20T02:48:08.519Z,94.00
2019-06-20T02:50:37.595Z,94.40
2019-06-20T02:53:06.511Z,94.70
2019-06-20T02:55:35.472Z,94.80
2019-06-20T02:58:04.467Z,95.20
2019-06-20T03:00:51.413Z,95.30
2019-06-20T03:03:20.477Z,95.30
2019-06-20T03:05:49.392Z,95.40
2019-06-20T03:08:18.311Z,95.50
2019-06-20T03:10:47.318Z,95.50
2019-06-20T03:13:16.266Z,95.40
2019-06-20T03:15:45.213Z,95.30
2019-06-20T03:18:14.151Z,95.40
2019-06-20T03:20:43.076Z,95.50
2019-06-20T03:23:12.020Z,95.50
2019-06-20T03:25:41.087Z,95.40
2019-06-20T03:28:10.009Z,95.60
2019-06-20T03:30:38.910Z,95.40
2019-06-20T03:33:07.857Z,95.50
2019-06-20T03:35:36.806Z,95.70
2019-06-20T03:38:06.817Z,95.40
2019-06-20T03:40:35.794Z,95.70
2019-06-20T03:43:04.807Z,95.60
2019-06-20T03:45:34.578Z,95.60
2019-06-20T03:48:03.647Z,95.30
2019-06-20T03:50:32.548Z,95.50
2019-06-20T03:53:04.219Z,95.40
2019-06-20T03:55:33.852Z,95.30
2019-06-20T03:58:02.978Z,95.20
2019-06-20T04:00:34.263Z,95.50
2019-06-20T04:03:03.490Z,95.40
2019-06-20T04:05:32.412Z,95.40
2019-06-20T04:08:01.354Z,95.30
2019-06-20T04:10:30.271Z,95.00
2019-06-20T04:13:00.190Z,95.10
2019-06-20T04:15:29.137Z,95.30
2019-06-20T04:17:58.053Z,95.20
2019-06-20T04:20:26.962Z,95.20
2019-06-20T04:22:55.923Z,95.30
2019-06-20T04:25:24.830Z,94.90
2019-06-20T04:27:53.765Z,94.60
2019-06-20T04:30:22.777Z,94.40
2019-06-20T04:32:51.702Z,94.30
2019-06-20T04:35:20.622Z,94.00
2019-06-20T04:37:49.681Z,94.30
2019-06-20T04:40:18.946Z,93.90
2019-06-20T04:42:47.920Z,93.70
2019-06-20T04:45:31.435Z,93.50
2019-06-20T04:47:49.298Z,93.10
2019-06-20T04:50:18.328Z,92.90
2019-06-20T04:52:47.318Z,92.80
2019-06-20T04:55:16.238Z,92.30
2019-06-20T04:57:45.269Z,92.10
2019-06-20T05:00:14.568Z,92.00
2019-06-20T05:02:43.527Z,91.50
2019-06-20T05:05:12.708Z,90.60
2019-06-20T05:07:41.676Z,90.20
2019-06-20T05:10:10.995Z,90.00
2019-06-20T05:12:39.904Z,90.00
2019-06-20T05:15:09.257Z,90.10
2019-06-20T05:17:38.184Z,90.10
2019-06-20T05:20:07.497Z,90.30
2019-06-20T05:22:36.545Z,90.40
2019-06-20T05:25:06.674Z,90.60
2019-06-20T05:27:35.710Z,90.90
2019-06-20T05:30:10.421Z,91.30
2019-06-20T05:32:39.336Z,91.80
2019-06-20T05:35:08.503Z,92.20
2019-06-20T05:37:37.624Z,92.40
2019-06-20T05:40:07.929Z,92.70
2019-06-20T05:42:36.842Z,93.70
2019-06-20T05:45:07.593Z,93.80
2019-06-20T05:47:36.555Z,96.10
2019-06-20T05:50:09.715Z,95.20
2019-06-20T05:52:38.632Z,95.70
2019-06-20T05:55:07.951Z,97.70
2019-06-20T05:57:36.924Z,94.90
2019-06-20T06:00:08.628Z,94.60
2019-06-20T06:02:37.766Z,94.50
2019-06-20T06:05:07.307Z,94.50
2019-06-20T06:07:36.278Z,94.10
2019-06-20T06:10:09.660Z,93.90
2019-06-20T06:12:38.714Z,93.80
2019-06-20T06:15:09.880Z,93.80
2019-06-20T06:17:38.876Z,93.60
2019-06-20T06:20:09.845Z,94.10
2019-06-20T06:22:39.043Z,94.40
2019-06-20T06:25:08.257Z,93.50
2019-06-20T06:27:37.210Z,92.60
2019-06-20T06:30:08.358Z,92.50
2019-06-20T06:32:40.298Z,91.30
2019-06-20T06:35:09.166Z,90.50
2019-06-20T06:37:38.117Z,91.50
2019-06-20T06:40:11.320Z,91.20
2019-06-20T06:42:41.202Z,90.70
2019-06-20T06:45:12.371Z,90.40
2019-06-20T06:47:41.340Z,90.60
2019-06-20T06:50:10.681Z,90.90
2019-06-20T06:52:39.637Z,90.10
2019-06-20T06:55:09.198Z,91.20
2019-06-20T06:57:38.773Z,90.70
2019-06-20T07:00:12.372Z,90.50
2019-06-20T07:02:41.348Z,90.20
2019-06-20T07:05:11.080Z,90.00
2019-06-20T07:07:41.482Z,89.30
2019-06-20T07:10:12.250Z,89.50
2019-06-20T07:12:43.608Z,90.10
2019-06-20T07:15:14.685Z,88.10
2019-06-20T07:17:44.369Z,87.80
2019-06-20T07:20:17.541Z,87.80
2019-06-20T07:22:46.706Z,89.70
2019-06-20T07:25:16.950Z,88.10
2019-06-20T07:27:45.955Z,87.50
2019-06-20T07:30:16.945Z,85.10
2019-06-20T07:32:46.344Z,82.90
2019-06-20T07:35:22.130Z,85.20
2019-06-20T07:37:51.108Z,83.90
2019-06-20T07:40:20.220Z,84.00
2019-06-20T07:42:49.142Z,82.10
2019-06-20T07:45:19.685Z,82.40
2019-06-20T07:47:48.636Z,80.70
2019-06-20T07:50:17.956Z,81.20
2019-06-20T07:53:00.895Z,80.20
2019-06-20T07:55:18.184Z,81.00
2019-06-20T07:57:47.098Z,78.90
2019-06-20T08:00:17.778Z,79.50
2019-06-20T08:02:46.718Z,75.70
2019-06-20T08:05:15.825Z,74.80
2019-06-20T08:07:44.734Z,75.40
2019-06-20T08:10:14.940Z,74.80
2019-06-20T08:12:43.897Z,74.00
2019-06-20T08:15:15.886Z,73.50
2019-06-20T08:17:44.758Z,73.20
2019-06-20T08:20:14.436Z,73.20
2019-06-20T08:22:43.349Z,71.80
2019-06-20T08:25:15.519Z,69.20
2019-06-20T08:27:51.570Z,66.90
2019-06-20T08:30:31.958Z,67.70
2019-06-20T08:33:03.597Z,69.10
2019-06-20T08:35:32.988Z,68.40
2019-06-20T08:38:03.627Z,69.60
2019-06-20T08:40:36.381Z,69.50
2019-06-20T08:43:06.259Z,69.50
2019-06-20T08:45:36.320Z,69.80
2019-06-20T08:48:05.430Z,70.50
2019-06-20T08:50:35.034Z,69.60
2019-06-20T08:53:05.717Z,67.60
2019-06-20T08:55:35.710Z,67.50
2019-06-20T08:58:05.645Z,66.80
2019-06-20T09:00:37.243Z,64.40
2019-06-20T09:03:06.952Z,62.70
2019-06-20T09:05:36.055Z,59.60
2019-06-20T09:08:07.032Z,60.50
2019-06-20T09:10:38.257Z,57.90
2019-06-20T09:13:07.819Z,57.40
2019-06-20T09:15:36.995Z,57.20
2019-06-20T09:18:06.235Z,57.70
2019-06-20T09:20:35.952Z,55.50
2019-06-20T09:23:05.618Z,54.40
2019-06-20T09:25:34.638Z,52.30
2019-06-20T09:28:03.637Z,53.30
2019-06-20T09:30:32.827Z,53.50
2019-06-20T09:33:01.697Z,53.80
2019-06-20T09:35:30.647Z,53.40
2019-06-20T09:37:59.685Z,53.30
2019-06-20T09:40:29.096Z,52.30
2019-06-20T09:42:58.773Z,50.40
2019-06-20T09:45:27.971Z,49.60
2019-06-20T09:47:58.141Z,51.20
2019-06-20T09:50:27.207Z,51.00
2019-06-20T09:52:56.664Z,51.60
2019-06-20T09:55:25.778Z,50.60
2019-06-20T09:57:55.907Z,48.00
2019-06-20T10:00:26.649Z,46.90
2019-06-20T10:02:56.301Z,47.40
2019-06-20T10:05:26.276Z,47.80
2019-06-20T10:07:56.472Z,46.60
2019-06-20T10:10:30.445Z,45.50
2019-06-20T10:12:59.623Z,44.50
2019-06-20T10:15:33.608Z,44.30
2019-06-20T10:18:02.565Z,44.90
2019-06-20T10:20:31.678Z,44.90
2019-06-20T10:23:13.629Z,42.80
2019-06-20T10:25:43.483Z,43.00
2019-06-20T10:28:12.484Z,43.50
2019-06-20T10:30:41.477Z,44.80
2019-06-20T10:33:10.554Z,43.00
2019-06-20T10:35:39.462Z,41.90
2019-06-20T10:38:08.404Z,44.60
2019-06-20T10:40:37.619Z,45.70
2019-06-20T10:43:06.567Z,44.90
2019-06-20T10:45:36.317Z,44.60
2019-06-20T10:48:05.543Z,44.10
2019-06-20T10:50:34.651Z,43.30
2019-06-20T10:53:03.550Z,42.90
2019-06-20T10:55:32.466Z,43.00
2019-06-20T10:58:01.428Z,42.40
2019-06-20T11:00:32.172Z,40.10
2019-06-20T11:03:01.088Z,40.40
2019-06-20T11:05:30.060Z,38.40
2019-06-20T11:07:58.977Z,37.80
2019-06-20T11:10:28.276Z,40.70
2019-06-20T11:12:57.219Z,39.90
2019-06-20T11:15:26.429Z,38.50
2019-06-20T11:17:56.747Z,38.70
2019-06-20T11:20:26.110Z,40.00
2019-06-20T11:22:55.012Z,38.80
2019-06-20T11:25:23.927Z,37.90
2019-06-20T11:27:52.911Z,38.50
2019-06-20T11:30:27.057Z,38.50
2019-06-20T11:32:56.051Z,39.30
2019-06-20T11:35:24.985Z,40.10
2019-06-20T11:37:53.881Z,38.50
2019-06-20T11:40:23.127Z,38.20
2019-06-20T11:42:52.057Z,37.50
2019-06-20T11:45:21.266Z,37.70
2019-06-20T11:47:50.286Z,39.00
2019-06-20T11:50:19.791Z,40.60
2019-06-20T11:52:48.709Z,40.30
2019-06-20T11:55:18.048Z,40.00
2019-06-20T11:57:48.254Z,41.00
2019-06-20T12:00:17.267Z,42.50
2019-06-20T12:02:46.338Z,43.40
2019-06-20T12:05:17.047Z,43.90
2019-06-20T12:07:47.635Z,43.80
2019-06-20T12:10:17.559Z,45.10
2019-06-20T12:12:46.894Z,45.90
2019-06-20T12:15:18.238Z,48.50
2019-06-20T12:17:49.120Z,51.80
2019-06-20T12:20:18.874Z,54.90
2019-06-20T12:22:50.549Z,56.60
2019-06-20T12:25:19.217Z,56.40
2019-06-20T12:27:49.616Z,56.60
2019-06-20T12:30:19.998Z,55.30
2019-06-20T12:32:49.330Z,53.10
2019-06-20T12:35:19.298Z,50.00
2019-06-20T12:37:49.754Z,46.00
2019-06-20T12:40:19.593Z,44.20
2019-06-20T12:42:49.349Z,44.80
2019-06-20T12:45:18.832Z,44.10
2019-06-20T12:47:47.826Z,44.60
2019-06-20T12:50:17.219Z,45.00
2019-06-20T12:52:47.554Z,41.80
2019-06-20T12:55:16.818Z,43.50
2019-06-20T12:57:46.318Z,42.30
2019-06-20T13:00:16.406Z,39.60
2019-06-20T13:02:45.611Z,39.40
2019-06-20T13:05:15.385Z,42.00
2019-06-20T13:07:44.438Z,42.50
2019-06-20T13:10:13.754Z,40.80
2019-06-20T13:12:43.074Z,42.20
2019-06-20T13:15:13.813Z,44.30
2019-06-20T13:17:43.610Z,44.70
2019-06-20T13:20:13.616Z,43.20
2019-06-20T13:22:42.909Z,42.70
2019-06-20T13:25:12.731Z,42.30
2019-06-20T13:27:43.271Z,42.70
2019-06-20T13:30:14.367Z,41.60
2019-06-20T13:32:43.911Z,42.50
2019-06-20T13:35:14.248Z,43.50
2019-06-20T13:37:43.494Z,45.20
2019-06-20T13:40:15.538Z,46.30
2019-06-20T13:42:45.959Z,46.90
2019-06-20T13:45:20.716Z,45.80
2019-06-20T13:47:50.088Z,44.50
2019-06-20T13:50:19.497Z,43.60
2019-06-20T13:52:49.726Z,43.00
2019-06-20T13:55:19.146Z,47.10
2019-06-20T13:57:49.234Z,44.90
2019-06-20T14:00:21.151Z,47.60
2019-06-20T14:02:51.468Z,48.70
2019-06-20T14:05:20.985Z,51.80
2019-06-20T14:07:53.576Z,52.40
2019-06-20T14:10:30.263Z,51.00
2019-06-20T14:12:59.221Z,48.70
2019-06-20T14:15:28.209Z,48.70
2019-06-20T14:17:57.133Z,48.80
2019-06-20T14:20:26.175Z,48.10
2019-06-20T14:22:56.547Z,49.30
2019-06-20T14:25:25.707Z,54.70
2019-06-20T14:27:54.678Z,54.90
2019-06-20T14:30:23.818Z,55.40
2019-06-20T14:32:54.039Z,52.40
2019-06-20T14:35:23.744Z,54.10
2019-06-20T14:37:52.721Z,54.10
2019-06-20T14:40:21.896Z,53.50
2019-06-20T14:42:52.206Z,54.70
2019-06-20T14:45:21.525Z,56.10
2019-06-20T14:47:52.269Z,57.90
2019-06-20T14:50:22.398Z,59.70
2019-06-20T14:52:53.989Z,59.40
2019-06-20T14:55:23.179Z,59.30
2019-06-20T14:57:52.471Z,61.70
2019-06-20T15:00:23.636Z,64.90
2019-06-20T15:02:58.208Z,63.40
2019-06-20T15:05:26.179Z,62.70
2019-06-20T15:07:55.883Z,61.50
2019-06-20T15:10:25.033Z,66.40
2019-06-20T15:12:55.655Z,72.40
2019-06-20T15:15:24.674Z,77.50
2019-06-20T15:17:55.687Z,82.20
2019-06-20T15:20:25.461Z,81.40
2019-06-20T15:22:54.737Z,82.20
2019-06-20T15:25:23.791Z,83.10
2019-06-20T15:27:53.881Z,84.60
2019-06-20T15:30:23.312Z,83.80
2019-06-20T15:33:01.943Z,80.00
2019-06-20T15:35:22.905Z,79.90
2019-06-20T15:37:53.639Z,81.30
2019-06-20T15:40:22.385Z,77.30
2019-06-20T15:42:53.004Z,78.60
2019-06-20T15:45:21.875Z,73.20
2019-06-20T15:47:50.895Z,75.00
2019-06-20T15:50:20.233Z,71.00
2019-06-20T15:52:49.243Z,66.50
2019-06-20T15:55:20.332Z,63.10
2019-06-20T15:57:49.347Z,58.50
2019-06-20T16:00:18.696Z,63.10
2019-06-20T16:02:48.622Z,66.50
2019-06-20T16:05:18.559Z,69.80
2019-06-20T16:07:47.497Z,71.50
2019-06-20T16:10:17.035Z,66.10
2019-06-20T16:12:45.990Z,71.70
2019-06-20T16:15:23.102Z,72.00
2019-06-20T16:18:04.231Z,71.30
2019-06-20T16:20:33.586Z,70.60
2019-06-20T16:23:07.145Z,77.70
2019-06-20T16:25:36.159Z,68.20
2019-06-20T16:28:06.114Z,74.90
2019-06-20T16:30:35.082Z,81.60
2019-06-20T16:33:03.999Z,82.20
2019-06-20T16:35:33.040Z,82.30
2019-06-20T16:38:01.963Z,82.80
2019-06-20T16:40:45.571Z,81.90
2019-06-20T16:43:14.895Z,79.60
2019-06-20T16:45:44.105Z,81.70
2019-06-20T16:48:13.059Z,81.70
2019-06-20T16:50:43.660Z,83.80
2019-06-20T16:53:12.704Z,83.50
2019-06-20T16:55:41.641Z,85.10
2019-06-20T16:58:10.654Z,88.50
2019-06-20T17:00:41.665Z,86.40
2019-06-20T17:03:12.110Z,87.50
2019-06-20T17:05:41.677Z,89.30
2019-06-20T17:08:11.479Z,90.60
2019-06-20T17:10:52.227Z,91.80
2019-06-20T17:13:25.472Z,91.90
2019-06-20T17:15:55.060Z,92.60
2019-06-20T17:18:24.012Z,92.20
2019-06-20T17:20:52.967Z,92.90
2019-06-20T17:23:21.889Z,93.80
2019-06-20T17:25:50.828Z,93.70
2019-06-20T17:28:31.881Z,93.20
2019-06-20T17:31:00.845Z,93.50
2019-06-20T17:33:29.899Z,91.00
2019-06-20T17:35:58.869Z,90.60
2019-06-20T17:38:27.783Z,89.90
2019-06-20T17:40:56.704Z,87.90
2019-06-20T17:43:25.674Z,90.10
2019-06-20T17:45:54.613Z,91.20
2019-06-20T17:48:23.574Z,90.40
2019-06-20T17:50:52.510Z,91.90
2019-06-20T17:53:21.465Z,91.60
2019-06-20T17:55:50.371Z,92.10
2019-06-20T17:58:19.323Z,92.90
2019-06-20T18:00:48.283Z,92.10
2019-06-20T18:03:17.228Z,92.80
2019-06-20T18:05:46.236Z,93.40
2019-06-20T18:08:17.492Z,93.00
2019-06-20T18:10:46.541Z,94.30
2019-06-20T18:13:15.466Z,95.20
2019-06-20T18:15:44.403Z,96.80
2019-06-20T18:18:13.361Z,96.50
2019-06-20T18:20:42.288Z,82.80
2019-06-20T18:23:11.217Z,91.30
2019-06-20T18:25:40.175Z,91.10
2019-06-20T18:28:09.077Z,94.20
2019-06-20T18:30:43.191Z,94.20
2019-06-20T18:33:12.392Z,94.50
2019-06-20T18:35:41.319Z,95.60
2019-06-20T18:38:10.470Z,94.40
2019-06-20T18:40:39.401Z,96.10
2019-06-20T18:43:08.312Z,96.00
2019-06-20T18:45:37.286Z,95.90
2019-06-20T18:48:06.329Z,96.60
2019-06-20T18:50:35.272Z,95.20
2019-06-20T18:53:04.235Z,95.70
2019-06-20T18:55:34.143Z,96.40
2019-06-20T18:58:03.060Z,96.70
2019-06-20T19:00:34.961Z,95.80
2019-06-20T19:03:02.776Z,96.40
2019-06-20T19:05:31.691Z,96.40
2019-06-20T19:08:00.656Z,95.50
2019-06-20T19:10:33.455Z,95.40
2019-06-20T19:13:01.235Z,95.50
2019-06-20T19:15:30.348Z,95.30
2019-06-20T19:17:59.991Z,96.10
2019-06-20T19:20:29.051Z,96.80
2019-06-20T19:22:59.775Z,97.10
2019-06-20T19:25:29.599Z,96.50
2019-06-20T19:27:58.761Z,97.00
2019-06-20T19:30:30.606Z,94.30
2019-06-20T19:32:59.735Z,94.50
2019-06-20T19:35:28.798Z,94.50
2019-06-20T19:37:57.882Z,94.40
2019-06-20T19:40:29.884Z,96.80
2019-06-20T19:42:59.064Z,95.00
2019-06-20T19:45:28.000Z,96.40
2019-06-20T19:47:57.103Z,96.50
2019-06-20T19:50:26.021Z,96.10
2019-06-20T19:52:55.004Z,94.60
2019-06-20T19:55:24.338Z,85.10
2019-06-20T19:57:53.440Z,83.10
2019-06-20T20:00:22.747Z,86.50
2019-06-20T20:02:53.477Z,85.90
2019-06-20T20:05:22.516Z,81.30
2019-06-20T20:07:51.584Z,80.20
2019-06-20T20:10:44.399Z,77.40
2019-06-20T20:13:15.458Z,76.20
2019-06-20T20:15:44.930Z,76.70
2019-06-20T20:18:15.477Z,75.80
2019-06-20T20:20:47.476Z,76.00
2019-06-20T20:23:16.770Z,75.10
2019-06-20T20:25:45.829Z,80.90
2019-06-20T20:28:14.755Z,74.90
2019-06-20T20:30:43.725Z,74.90
2019-06-20T20:33:12.748Z,73.60
2019-06-20T20:35:41.667Z,76.20
2019-06-20T20:38:10.649Z,76.30
2019-06-20T20:40:39.586Z,76.60
2019-06-20T20:43:08.691Z,76.10
2019-06-20T20:45:37.761Z,76.50
2019-06-20T20:48:06.700Z,79.90
2019-06-20T20:50:35.754Z,77.50
2019-06-20T20:53:04.945Z,80.30
2019-06-20T20:55:33.884Z,78.10
2019-06-20T20:58:02.857Z,81.50
2019-06-20T21:00:37.744Z,79.90
2019-06-20T21:03:07.425Z,79.10
2019-06-20T21:05:50.690Z,78.80
2019-06-20T21:08:07.215Z,79.10
2019-06-20T21:10:36.290Z,81.80
2019-06-20T21:13:05.334Z,78.90
2019-06-20T21:15:34.311Z,86.80
2019-06-20T21:18:03.304Z,81.40
2019-06-20T21:20:32.313Z,86.30
2019-06-20T21:23:01.502Z,91.70
2019-06-20T21:25:32.350Z,92.40
2019-06-20T21:28:01.149Z,93.60
2019-06-20T21:30:31.666Z,93.70
2019-06-20T21:33:00.707Z,94.00
2019-06-20T21:35:29.775Z,94.50
2019-06-20T21:37:59.043Z,95.00
2019-06-20T21:40:27.942Z,94.30
2019-06-20T21:42:56.900Z,92.10
2019-06-20T21:45:26.018Z,91.10
2019-06-20T21:47:54.985Z,88.90
2019-06-20T21:50:23.896Z,86.40
2019-06-20T21:52:53.003Z,84.60
2019-06-20T21:55:21.942Z,83.90
2019-06-20T21:57:51.877Z,83.40
2019-06-20T22:00:40.339Z,84.80
2019-06-20T22:05:55.399Z,82.50
2019-06-20T22:08:24.285Z,82.40
2019-06-20T22:10:53.249Z,82.10
2019-06-20T22:13:22.210Z,81.70
2019-06-20T22:15:51.229Z,81.90
2019-06-20T22:18:20.198Z,81.50
2019-06-20T22:20:49.249Z,81.60
2019-06-20T22:23:18.159Z,81.00
2019-06-20T22:25:47.124Z,81.60
2019-06-20T22:28:16.229Z,81.70
2019-06-20T22:30:48.206Z,83.10
2019-06-20T22:33:17.148Z,82.80
2019-06-20T22:35:46.340Z,84.30
2019-06-20T22:38:15.371Z,85.10
2019-06-20T22:40:44.816Z,84.70
2019-06-20T22:43:14.859Z,84.70
2019-06-20T22:45:43.775Z,89.80
2019-06-20T22:48:12.756Z,87.00
2019-06-20T22:50:42.838Z,87.80
2019-06-20T22:53:11.775Z,85.40
2019-06-20T22:55:40.746Z,83.40
2019-06-20T22:58:09.660Z,82.70
2019-06-20T23:00:38.753Z,81.40
2019-06-20T23:03:07.724Z,81.50
2019-06-20T23:05:36.685Z,82.40
2019-06-20T23:08:05.729Z,82.10
2019-06-20T23:10:34.734Z,83.10
2019-06-20T23:13:03.637Z,82.10
2019-06-20T23:15:32.571Z,81.70
2019-06-20T23:18:01.574Z,82.70
2019-06-20T23:20:30.634Z,82.80
2019-06-20T23:22:59.557Z,82.70
2019-06-20T23:25:28.566Z,83.00
2019-06-20T23:27:57.533Z,83.50
2019-06-20T23:30:26.804Z,83.60
2019-06-20T23:32:55.774Z,83.80
2019-06-20T23:35:24.675Z,83.80
2019-06-20T23:37:53.592Z,83.40
2019-06-20T23:40:23.139Z,83.10
2019-06-20T23:42:52.079Z,82.30
2019-06-20T23:45:21.283Z,82.00
2019-06-20T23:47:50.245Z,81.80
2019-06-20T23:50:19.280Z,82.00
2019-06-20T23:52:57.633Z,81.60
2019-06-20T23:55:26.573Z,81.40
2019-06-20T23:57:55.548Z,81.30
